createdAt,value
2023-02-06T00:01:52.057Z,103570.28
2023-02-06T00:04:20.798Z,103573.81
2023-02-06T00:06:49.715Z,103573.78
2023-02-06T00:09:19.339Z,103570.22
2023-02-06T00:11:47.816Z,103573.72
2023-02-06T00:14:17.539Z,103576.38
2023-02-06T00:16:45.910Z,103570.22
2023-02-06T00:19:15.310Z,103572.81
2023-02-06T00:21:44.008Z,103561.34
2023-02-06T00:24:12.367Z,103551.66
2023-02-06T00:26:40.668Z,103557.81
2023-02-06T00:29:08.951Z,103564.94
2023-02-06T00:31:39.110Z,103572.00
2023-02-06T00:34:07.509Z,103567.56
2023-02-06T00:36:35.878Z,103556.13
2023-02-06T00:39:04.361Z,103555.22
2023-02-06T00:41:32.792Z,103569.38
2023-02-06T00:44:01.223Z,103557.91
2023-02-06T00:46:29.669Z,103557.88
2023-02-06T00:48:59.394Z,103564.06
2023-02-06T00:51:28.052Z,103569.38
2023-02-06T00:53:56.499Z,103569.38
2023-02-06T00:56:24.805Z,103579.97
2023-02-06T00:58:53.215Z,103572.00
2023-02-06T01:01:21.778Z,103568.47
2023-02-06T01:03:50.233Z,103563.16
2023-02-06T01:06:20.809Z,103564.06
2023-02-06T01:08:49.817Z,103571.09
2023-02-06T01:11:20.936Z,103571.09
2023-02-06T01:13:49.949Z,103564.03
2023-02-06T01:16:22.412Z,103567.59
2023-02-06T01:18:51.869Z,103568.47
2023-02-06T01:21:25.380Z,103563.16
2023-02-06T01:23:55.934Z,103567.56
2023-02-06T01:26:27.948Z,103570.25
2023-02-06T01:28:57.422Z,103572.88
2023-02-06T01:31:29.327Z,103573.75
2023-02-06T01:33:59.886Z,103580.84
2023-02-06T01:36:31.258Z,103584.38
2023-02-06T01:39:01.713Z,103580.84
2023-02-06T01:41:30.018Z,103585.25
2023-02-06T01:44:14.005Z,103589.69
2023-02-06T01:46:45.375Z,103579.09
2023-02-06T01:49:21.083Z,103591.44
2023-02-06T01:51:56.645Z,103592.31
2023-02-06T01:54:25.750Z,103587.00
2023-02-06T01:57:00.408Z,103584.41
2023-02-06T01:59:29.294Z,103596.75
2023-02-06T02:01:58.233Z,103595.88
2023-02-06T02:04:29.960Z,103601.16
2023-02-06T02:07:12.918Z,103605.59
2023-02-06T02:09:41.245Z,103607.34
2023-02-06T02:12:09.597Z,103598.50
2023-02-06T02:14:42.296Z,103589.66
2023-02-06T02:17:34.476Z,103594.97
2023-02-06T02:20:42.245Z,103584.34
2023-02-06T02:23:28.824Z,103585.25
2023-02-06T02:27:00.307Z,103575.56
2023-02-06T02:30:07.569Z,103571.13
2023-02-06T02:33:27.335Z,103575.56
2023-02-06T02:36:08.007Z,103576.44
2023-02-06T02:38:52.633Z,103576.44
2023-02-06T02:41:29.180Z,103568.47
2023-02-06T02:44:08.897Z,103558.78
2023-02-06T02:46:42.207Z,103566.72
2023-02-06T02:49:15.990Z,103552.59
2023-02-06T02:51:50.503Z,103547.28
2023-02-06T02:54:19.604Z,103554.38
2023-02-06T02:56:48.388Z,103542.00
2023-02-06T02:59:24.191Z,103546.41
2023-02-06T03:01:59.892Z,103545.50
2023-02-06T03:04:36.172Z,103547.28
2023-02-06T03:07:17.206Z,103549.94
2023-02-06T03:09:59.329Z,103543.72
2023-02-06T03:12:45.225Z,103536.66
2023-02-06T03:15:27.920Z,103541.09
2023-02-06T03:18:07.809Z,103530.50
2023-02-06T03:20:42.160Z,103534.03
2023-02-06T03:23:16.891Z,103530.47
2023-02-06T03:25:51.990Z,103530.50
2023-02-06T03:28:28.522Z,103533.16
2023-02-06T03:31:02.357Z,103531.41
2023-02-06T03:33:37.892Z,103533.16
2023-02-06T03:36:08.518Z,103536.69
2023-02-06T03:38:38.512Z,103538.44
2023-02-06T03:41:08.554Z,103548.16
2023-02-06T03:43:37.915Z,103558.75
2023-02-06T03:46:12.609Z,103558.78
2023-02-06T03:48:45.850Z,103554.34
2023-02-06T03:51:20.312Z,103558.78
2023-02-06T03:53:56.006Z,103549.06
2023-02-06T03:56:32.853Z,103564.06
2023-02-06T03:59:01.614Z,103561.41
2023-02-06T04:01:30.475Z,103551.69
2023-02-06T04:04:00.014Z,103565.81
2023-02-06T04:06:28.520Z,103571.13
2023-02-06T04:08:58.258Z,103579.09
2023-02-06T04:11:26.628Z,103582.59
2023-02-06T04:13:54.996Z,103586.16
2023-02-06T04:16:23.343Z,103585.25
2023-02-06T04:18:52.379Z,103589.69
2023-02-06T04:21:21.215Z,103580.88
2023-02-06T04:23:49.592Z,103569.38
2023-02-06T04:26:19.673Z,103578.22
2023-02-06T04:28:48.021Z,103582.59
2023-02-06T04:31:16.466Z,103583.47
2023-02-06T04:33:44.930Z,103581.75
2023-02-06T04:36:13.393Z,103589.66
2023-02-06T04:38:41.893Z,103593.22
2023-02-06T04:41:11.249Z,103589.66
2023-02-06T04:43:40.907Z,103601.16
2023-02-06T04:46:09.203Z,103602.03
2023-02-06T04:48:38.718Z,103606.47
2023-02-06T04:51:08.088Z,103608.25
2023-02-06T04:53:36.729Z,103608.22
2023-02-06T04:56:06.470Z,103610.88
2023-02-06T04:58:35.619Z,103608.22
2023-02-06T05:01:05.586Z,103613.53
2023-02-06T05:03:34.191Z,103597.63
2023-02-06T05:06:04.451Z,103597.59
2023-02-06T05:08:33.751Z,103605.59
2023-02-06T05:11:02.085Z,103617.06
2023-02-06T05:13:30.516Z,103619.72
2023-02-06T05:16:01.542Z,103620.59
2023-02-06T05:18:31.217Z,103616.19
2023-02-06T05:20:59.790Z,103621.50
2023-02-06T05:23:28.070Z,103622.38
2023-02-06T05:25:56.452Z,103620.63
2023-02-06T05:28:24.733Z,103617.97
2023-02-06T05:30:53.665Z,103618.81
2023-02-06T05:33:22.120Z,103623.25
2023-02-06T05:35:51.837Z,103634.69
2023-02-06T05:38:23.164Z,103638.25
2023-02-06T05:40:52.902Z,103643.56
2023-02-06T05:43:21.363Z,103643.56
2023-02-06T05:45:49.700Z,103643.53
2023-02-06T05:48:17.976Z,103640.00
2023-02-06T05:50:46.385Z,103632.94
2023-02-06T05:53:16.408Z,103633.81
2023-02-06T05:55:44.728Z,103641.75
2023-02-06T05:58:13.506Z,103642.63
2023-02-06T06:00:42.836Z,103646.19
2023-02-06T06:03:11.143Z,103650.59
2023-02-06T06:05:39.594Z,103650.56
2023-02-06T06:08:08.283Z,103649.69
2023-02-06T06:10:37.951Z,103647.91
2023-02-06T06:13:06.236Z,103644.38
2023-02-06T06:15:35.014Z,103649.66
2023-02-06T06:18:03.877Z,103652.19
2023-02-06T06:20:32.269Z,103653.09
2023-02-06T06:23:00.545Z,103654.78
2023-02-06T06:25:29.828Z,103656.50
2023-02-06T06:28:00.165Z,103659.94
2023-02-06T06:30:28.645Z,103658.16
2023-02-06T06:32:58.022Z,103669.56
2023-02-06T06:35:26.946Z,103669.56
2023-02-06T06:37:55.213Z,103664.31
2023-02-06T06:40:23.928Z,103664.25
2023-02-06T06:42:52.246Z,103672.13
2023-02-06T06:45:22.379Z,103663.28
2023-02-06T06:47:50.688Z,103671.19
2023-02-06T06:50:22.214Z,103680.91
2023-02-06T06:52:50.618Z,103684.47
2023-02-06T06:55:19.827Z,103684.53
2023-02-06T06:57:48.895Z,103695.19
2023-02-06T07:00:18.329Z,103700.59
2023-02-06T07:02:48.037Z,103707.59
2023-02-06T07:05:16.418Z,103706.00
2023-02-06T07:07:44.820Z,103700.78
2023-02-06T07:10:14.241Z,103704.31
2023-02-06T07:12:42.856Z,103704.34
2023-02-06T07:15:11.674Z,103705.28
2023-02-06T07:17:40.122Z,103704.34
2023-02-06T07:20:11.824Z,103698.16
2023-02-06T07:22:40.201Z,103692.88
2023-02-06T07:25:09.250Z,103693.75
2023-02-06T07:27:37.577Z,103685.84
2023-02-06T07:30:06.780Z,103692.03
2023-02-06T07:32:36.776Z,103699.09
2023-02-06T07:35:06.252Z,103701.72
2023-02-06T07:37:37.062Z,103706.16
2023-02-06T07:40:06.793Z,103700.00
2023-02-06T07:42:36.028Z,103702.66
2023-02-06T07:45:04.743Z,103701.81
2023-02-06T07:47:33.050Z,103700.06
2023-02-06T07:50:01.349Z,103694.72
2023-02-06T07:52:30.621Z,103700.03
2023-02-06T07:55:00.300Z,103689.50
2023-02-06T07:57:28.770Z,103681.56
2023-02-06T07:59:57.308Z,103680.66
2023-02-06T08:02:25.559Z,103679.78
2023-02-06T08:04:53.775Z,103685.97
2023-02-06T08:07:22.367Z,103700.97
2023-02-06T08:09:50.710Z,103700.09
2023-02-06T08:12:20.499Z,103707.16
2023-02-06T08:14:48.803Z,103701.00
2023-02-06T08:17:19.511Z,103709.84
2023-02-06T08:19:48.114Z,103703.66
2023-02-06T08:22:16.425Z,103725.75
2023-02-06T08:24:44.663Z,103718.66
2023-02-06T08:27:13.007Z,103720.47
2023-02-06T08:29:43.635Z,103724.84
2023-02-06T08:32:12.901Z,103725.75
2023-02-06T08:34:41.615Z,103727.50
2023-02-06T08:37:10.071Z,103733.72
2023-02-06T08:39:39.220Z,103729.25
2023-02-06T08:42:07.681Z,103739.00
2023-02-06T08:44:36.537Z,103732.81
2023-02-06T08:47:10.387Z,103728.41
2023-02-06T08:49:39.216Z,103738.09
2023-02-06T08:52:07.512Z,103742.53
2023-02-06T08:54:38.589Z,103731.03
2023-02-06T08:57:07.751Z,103730.13
2023-02-06T08:59:36.432Z,103726.56
2023-02-06T09:02:08.272Z,103725.56
2023-02-06T09:04:37.826Z,103717.59
2023-02-06T09:07:07.236Z,103715.84
2023-02-06T09:09:35.626Z,103721.09
2023-02-06T09:12:04.481Z,103706.91
2023-02-06T09:14:34.133Z,103690.06
2023-02-06T09:17:02.691Z,103691.69
2023-02-06T09:19:32.324Z,103683.69
2023-02-06T09:22:00.628Z,103677.97
2023-02-06T09:24:30.240Z,103684.19
2023-02-06T09:27:00.806Z,103676.09
2023-02-06T09:29:31.809Z,103685.94
2023-02-06T09:32:01.220Z,103695.56
2023-02-06T09:34:31.566Z,103696.63
2023-02-06T09:37:04.926Z,103705.94
2023-02-06T09:39:34.085Z,103703.03
2023-02-06T09:42:12.653Z,103712.81
2023-02-06T09:44:44.501Z,103721.22
2023-02-06T09:47:24.283Z,103712.97
2023-02-06T09:49:58.516Z,103715.66
2023-02-06T09:52:48.012Z,103726.34
2023-02-06T09:55:26.594Z,103713.75
2023-02-06T09:58:06.162Z,103703.88
2023-02-06T10:00:48.885Z,103696.88
2023-02-06T10:03:45.003Z,103686.59
2023-02-06T10:06:21.539Z,103675.59
2023-02-06T10:09:01.381Z,103698.72
2023-02-06T10:11:48.042Z,103705.75
2023-02-06T10:14:25.585Z,103705.94
2023-02-06T10:17:01.251Z,103724.16
2023-02-06T10:19:44.159Z,103714.25
2023-02-06T10:22:24.346Z,103697.38
2023-02-06T10:25:16.498Z,103694.22
2023-02-06T10:27:48.984Z,103671.81
2023-02-06T10:30:21.104Z,103672.69
2023-02-06T10:33:01.214Z,103690.06
2023-02-06T10:35:52.911Z,103721.88
2023-02-06T10:39:11.478Z,103739.72
2023-02-06T10:41:48.702Z,103734.41
2023-02-06T10:44:27.349Z,103735.56
2023-02-06T10:46:57.510Z,103732.13
2023-02-06T10:49:36.485Z,103746.09
2023-02-06T10:52:19.815Z,103739.78
2023-02-06T10:54:56.429Z,103741.44
2023-02-06T10:57:29.494Z,103756.28
2023-02-06T11:00:02.865Z,103773.63
2023-02-06T11:03:01.376Z,103760.88
2023-02-06T11:05:35.823Z,103757.41
2023-02-06T11:08:15.321Z,103766.03
2023-02-06T11:10:46.413Z,103778.66
2023-02-06T11:13:22.930Z,103784.97
2023-02-06T11:16:00.347Z,103790.19
2023-02-06T11:18:35.610Z,103775.88
2023-02-06T11:21:05.017Z,103772.44
2023-02-06T11:23:35.121Z,103770.66
2023-02-06T11:26:14.292Z,103771.25
2023-02-06T11:28:53.371Z,103759.81
2023-02-06T11:31:40.888Z,103758.00
2023-02-06T11:34:27.883Z,103761.22
2023-02-06T11:36:59.536Z,103756.28
2023-02-06T11:39:31.736Z,103754.63
2023-02-06T11:42:06.278Z,103748.09
2023-02-06T11:44:40.946Z,103754.31
2023-02-06T11:47:31.380Z,103761.47
2023-02-06T11:50:25.566Z,103761.59
2023-02-06T11:53:01.386Z,103760.97
2023-02-06T11:55:34.227Z,103763.31
2023-02-06T11:58:18.506Z,103770.34
2023-02-06T12:01:02.016Z,103778.13
2023-02-06T12:03:37.000Z,103779.97
2023-02-06T12:06:14.012Z,103787.78
2023-02-06T12:08:49.775Z,103780.88
2023-02-06T12:11:27.077Z,103774.63
2023-02-06T12:14:07.021Z,103772.91
2023-02-06T12:16:40.783Z,103782.25
2023-02-06T12:19:18.487Z,103777.63
2023-02-06T12:21:52.182Z,103766.38
2023-02-06T12:24:35.110Z,103770.78
2023-02-06T12:27:14.602Z,103781.47
2023-02-06T12:29:55.273Z,103770.78
2023-02-06T12:32:33.142Z,103788.47
2023-02-06T12:35:16.382Z,103787.78
2023-02-06T12:37:52.789Z,103794.88
2023-02-06T12:40:40.269Z,103793.25
2023-02-06T12:43:12.958Z,103790.06
2023-02-06T12:45:56.283Z,103775.75
2023-02-06T12:48:31.277Z,103763.81
2023-02-06T12:51:13.599Z,103737.06
2023-02-06T12:53:50.133Z,103730.66
2023-02-06T12:56:29.727Z,103743.19
2023-02-06T12:59:56.731Z,103761.25
2023-02-06T13:02:57.828Z,103775.69
2023-02-06T13:05:33.399Z,103771.44
2023-02-06T13:08:09.463Z,103776.44
2023-02-06T13:10:39.333Z,103777.84
2023-02-06T13:13:25.896Z,103770.69
2023-02-06T13:16:00.467Z,103770.50
2023-02-06T13:19:04.730Z,103769.13
2023-02-06T13:21:36.778Z,103772.97
2023-02-06T13:24:23.922Z,103765.50
2023-02-06T13:27:16.162Z,103763.25
2023-02-06T13:29:46.940Z,103755.81
2023-02-06T13:32:50.268Z,103759.53
2023-02-06T13:35:28.100Z,103769.25
2023-02-06T13:38:38.125Z,103764.66
2023-02-06T13:41:38.444Z,103760.66
2023-02-06T13:44:19.080Z,103761.97
2023-02-06T13:47:57.889Z,103760.19
2023-02-06T13:50:58.252Z,103764.69
2023-02-06T13:54:17.473Z,103766.28
2023-02-06T13:57:10.841Z,103764.91
2023-02-06T13:59:46.196Z,103772.69
2023-02-06T14:02:23.568Z,103772.50
2023-02-06T14:04:52.490Z,103767.22
2023-02-06T14:07:50.930Z,103776.25
2023-02-06T14:10:44.702Z,103763.06
2023-02-06T14:13:38.424Z,103762.06
2023-02-06T14:16:26.086Z,103761.91
2023-02-06T14:19:03.290Z,103764.03
2023-02-06T14:21:51.765Z,103765.81
2023-02-06T14:24:50.568Z,103758.94
2023-02-06T14:27:40.194Z,103760.88
2023-02-06T14:30:26.894Z,103771.63
2023-02-06T14:33:12.086Z,103766.38
2023-02-06T14:36:01.755Z,103785.88
2023-02-06T14:38:53.986Z,103785.84
2023-02-06T14:41:24.056Z,103791.09
2023-02-06T14:43:53.528Z,103781.38
2023-02-06T14:46:22.081Z,103793.72
2023-02-06T14:48:56.348Z,103789.31
2023-02-06T14:51:30.514Z,103796.44
2023-02-06T14:54:02.756Z,103790.28
2023-02-06T14:56:36.304Z,103784.53
2023-02-06T14:59:19.232Z,103775.78
2023-02-06T15:01:53.969Z,103767.31
2023-02-06T15:04:26.242Z,103755.00
2023-02-06T15:06:57.643Z,103738.34
2023-02-06T15:09:30.528Z,103735.63
2023-02-06T15:12:03.001Z,103732.88
2023-02-06T15:14:34.545Z,103735.56
2023-02-06T15:17:03.854Z,103741.88
2023-02-06T15:19:35.950Z,103742.78
2023-02-06T15:22:11.280Z,103754.91
2023-02-06T15:25:11.476Z,103751.84
2023-02-06T15:27:41.285Z,103771.16
2023-02-06T15:30:22.106Z,103792.84
2023-02-06T15:32:55.980Z,103792.00
2023-02-06T15:35:29.953Z,103792.88
2023-02-06T15:38:06.439Z,103791.09
2023-02-06T15:40:39.089Z,103796.47
2023-02-06T15:43:15.144Z,103805.28
2023-02-06T15:45:46.204Z,103796.44
2023-02-06T15:48:26.382Z,103795.56
2023-02-06T15:51:01.284Z,103805.16
2023-02-06T15:53:37.350Z,103810.31
2023-02-06T15:56:10.868Z,103812.00
2023-02-06T15:58:40.985Z,103807.44
2023-02-06T16:01:18.642Z,103810.91
2023-02-06T16:03:53.297Z,103809.91
2023-02-06T16:06:22.286Z,103806.31
2023-02-06T16:08:55.361Z,103807.09
2023-02-06T16:11:52.036Z,103815.75
2023-02-06T16:14:35.174Z,103821.78
2023-02-06T16:17:22.481Z,103821.78
2023-02-06T16:19:57.086Z,103831.31
2023-02-06T16:22:28.819Z,103827.72
2023-02-06T16:25:21.028Z,103825.91
2023-02-06T16:27:51.841Z,103828.38
2023-02-06T16:30:30.447Z,103828.31
2023-02-06T16:33:02.696Z,103827.31
2023-02-06T16:35:31.865Z,103820.25
2023-02-06T16:38:00.388Z,103828.22
2023-02-06T16:40:28.801Z,103828.19
2023-02-06T16:42:57.142Z,103832.47
2023-02-06T16:45:29.026Z,103838.63
2023-02-06T16:47:59.038Z,103844.66
2023-02-06T16:50:28.360Z,103840.03
2023-02-06T16:53:00.671Z,103846.91
2023-02-06T16:55:29.292Z,103858.13
2023-02-06T16:58:01.669Z,103858.91
2023-02-06T17:00:33.582Z,103864.06
2023-02-06T17:03:02.434Z,103865.59
2023-02-06T17:05:33.228Z,103870.63
2023-02-06T17:08:03.958Z,103865.03
2023-02-06T17:10:32.296Z,103868.16
2023-02-06T17:13:00.703Z,103863.47
2023-02-06T17:15:29.344Z,103860.63
2023-02-06T17:17:59.249Z,103865.59
2023-02-06T17:20:33.854Z,103864.38
2023-02-06T17:23:02.825Z,103868.50
2023-02-06T17:25:31.393Z,103866.03
2023-02-06T17:27:59.982Z,103877.53
2023-02-06T17:30:28.626Z,103873.97
2023-02-06T17:32:59.402Z,103882.88
2023-02-06T17:35:28.106Z,103873.81
2023-02-06T17:37:56.400Z,103872.81
2023-02-06T17:40:28.801Z,103870.81
2023-02-06T17:43:02.189Z,103876.66
2023-02-06T17:45:33.471Z,103878.38
2023-02-06T17:48:03.341Z,103873.16
2023-02-06T17:50:31.917Z,103874.72
2023-02-06T17:53:00.477Z,103879.75
2023-02-06T17:55:29.472Z,103879.44
2023-02-06T17:57:57.924Z,103881.97
2023-02-06T18:00:27.289Z,103884.66
2023-02-06T18:02:59.318Z,103890.53
2023-02-06T18:05:29.530Z,103882.41
2023-02-06T18:07:58.027Z,103883.22
2023-02-06T18:10:27.564Z,103881.44
2023-02-06T18:12:56.967Z,103885.66
2023-02-06T18:15:25.750Z,103884.53
2023-02-06T18:17:54.922Z,103880.69
2023-02-06T18:20:23.586Z,103877.91
2023-02-06T18:22:53.388Z,103892.47
2023-02-06T18:25:21.960Z,103883.53
2023-02-06T18:27:51.346Z,103886.97
2023-02-06T18:30:20.038Z,103885.44
2023-02-06T18:32:48.590Z,103885.38
2023-02-06T18:35:20.050Z,103890.38
2023-02-06T18:37:50.264Z,103881.47
2023-02-06T18:40:23.536Z,103889.97
2023-02-06T18:42:52.015Z,103893.63
2023-02-06T18:45:21.627Z,103895.84
2023-02-06T18:47:51.403Z,103889.63
2023-02-06T18:50:22.065Z,103889.72
2023-02-06T18:52:51.365Z,103886.16
2023-02-06T18:55:23.330Z,103881.75
2023-02-06T18:57:53.059Z,103883.53
2023-02-06T19:00:24.552Z,103871.25
2023-02-06T19:02:53.089Z,103877.66
2023-02-06T19:05:23.527Z,103883.84
2023-02-06T19:07:54.012Z,103893.56
2023-02-06T19:10:25.845Z,103886.75
2023-02-06T19:12:54.257Z,103882.31
2023-02-06T19:15:22.813Z,103886.78
2023-02-06T19:17:51.978Z,103882.03
2023-02-06T19:20:20.986Z,103875.88
2023-02-06T19:22:51.657Z,103873.41
2023-02-06T19:25:21.308Z,103874.72
2023-02-06T19:27:51.240Z,103875.91
2023-02-06T19:30:20.045Z,103877.31
2023-02-06T19:32:48.818Z,103889.47
2023-02-06T19:35:19.040Z,103885.72
2023-02-06T19:37:47.644Z,103884.69
2023-02-06T19:40:16.213Z,103893.44
2023-02-06T19:42:45.670Z,103887.34
2023-02-06T19:45:15.432Z,103894.31
2023-02-06T19:47:43.767Z,103888.03
2023-02-06T19:50:14.236Z,103893.09
2023-02-06T19:52:42.761Z,103895.38
2023-02-06T19:55:11.431Z,103896.13
2023-02-06T19:57:40.812Z,103909.44
2023-02-06T20:00:11.437Z,103900.09
2023-02-06T20:02:42.134Z,103899.41
2023-02-06T20:05:10.950Z,103899.28
2023-02-06T20:07:39.444Z,103895.00
2023-02-06T20:10:08.688Z,103892.53
2023-02-06T20:12:37.007Z,103901.25
2023-02-06T20:15:05.940Z,103899.41
2023-02-06T20:17:34.244Z,103902.59
2023-02-06T20:20:04.678Z,103900.53
2023-02-06T20:22:33.420Z,103903.13
2023-02-06T20:25:01.847Z,103901.31
2023-02-06T20:27:30.270Z,103907.22
2023-02-06T20:29:58.644Z,103910.69
2023-02-06T20:32:27.375Z,103915.03
2023-02-06T20:34:57.836Z,103909.78
2023-02-06T20:37:28.828Z,103914.56
2023-02-06T20:39:57.318Z,103924.94
2023-02-06T20:42:27.315Z,103927.44
2023-02-06T20:44:56.621Z,103924.63
2023-02-06T20:47:25.165Z,103933.25
2023-02-06T20:49:53.602Z,103928.66
2023-02-06T20:52:22.088Z,103938.00
2023-02-06T20:54:51.858Z,103944.91
2023-02-06T20:57:23.054Z,103944.66
2023-02-06T20:59:51.459Z,103953.16
2023-02-06T21:02:20.133Z,103944.25
2023-02-06T21:04:48.673Z,103939.78
2023-02-06T21:07:19.492Z,103936.91
2023-02-06T21:09:48.769Z,103956.00
2023-02-06T21:12:18.571Z,103964.63
2023-02-06T21:14:47.118Z,103961.88
2023-02-06T21:17:15.434Z,103960.09
2023-02-06T21:19:43.851Z,103961.59
2023-02-06T21:22:12.420Z,103964.84
2023-02-06T21:24:40.754Z,103962.38
2023-02-06T21:27:10.158Z,103964.78
2023-02-06T21:29:39.958Z,103964.69
2023-02-06T21:32:14.002Z,103959.88
2023-02-06T21:34:43.108Z,103966.72
2023-02-06T21:37:11.507Z,103969.19
2023-02-06T21:39:41.126Z,103969.53
2023-02-06T21:42:10.302Z,103963.13
2023-02-06T21:44:42.230Z,103958.00
2023-02-06T21:47:10.875Z,103965.72
2023-02-06T21:49:39.396Z,103974.03
2023-02-06T21:52:07.726Z,103990.91
2023-02-06T21:54:36.043Z,103967.81
2023-02-06T21:57:04.884Z,103972.78
2023-02-06T21:59:34.118Z,103977.47
2023-02-06T22:02:03.961Z,103972.00
2023-02-06T22:04:32.298Z,103986.63
2023-02-06T22:07:00.633Z,103988.63
2023-02-06T22:09:28.958Z,103992.28
2023-02-06T22:11:58.316Z,103994.81
2023-02-06T22:14:27.212Z,103989.78
2023-02-06T22:16:55.602Z,104002.50
2023-02-06T22:19:25.273Z,104001.59
2023-02-06T22:21:53.916Z,103995.38
2023-02-06T22:24:22.301Z,103998.88
2023-02-06T22:26:52.703Z,103989.38
2023-02-06T22:29:21.100Z,103990.97
2023-02-06T22:31:49.613Z,103998.69
2023-02-06T22:34:21.876Z,104000.03
2023-02-06T22:36:52.111Z,103996.59
2023-02-06T22:39:21.223Z,103996.25
2023-02-06T22:41:51.430Z,103991.06
2023-02-06T22:44:21.647Z,103999.69
2023-02-06T22:46:53.630Z,103992.56
2023-02-06T22:49:24.560Z,103985.34
2023-02-06T22:51:54.468Z,103978.66
2023-02-06T22:54:22.842Z,103980.19
2023-02-06T22:56:51.796Z,103977.56
2023-02-06T22:59:23.309Z,103973.28
2023-02-06T23:01:53.385Z,103978.47
2023-02-06T23:04:24.227Z,103985.34
2023-02-06T23:06:54.929Z,103983.97
2023-02-06T23:09:26.831Z,103987.34
2023-02-06T23:11:58.480Z,103990.66
2023-02-06T23:14:28.213Z,103982.09
2023-02-06T23:16:58.303Z,103977.56
2023-02-06T23:19:27.431Z,103962.88
2023-02-06T23:21:57.328Z,103954.00
2023-02-06T23:24:25.860Z,103959.22
2023-02-06T23:26:54.986Z,103960.06
2023-02-06T23:29:24.925Z,103965.44
2023-02-06T23:31:54.041Z,103969.09
2023-02-06T23:34:24.562Z,103971.78
2023-02-06T23:36:53.654Z,103966.31
2023-02-06T23:39:23.718Z,103964.81
2023-02-06T23:41:52.147Z,103973.56
2023-02-06T23:44:21.224Z,103974.53
2023-02-06T23:46:50.990Z,103989.50
2023-02-06T23:49:19.649Z,103982.97
2023-02-06T23:51:48.065Z,103976.06
2023-02-06T23:54:16.413Z,103971.84
2023-02-06T23:56:46.169Z,103965.88
2023-02-06T23:59:14.567Z,103980.84
